createdAt,value
2023-08-23T00:00:38.250Z,16.95
2023-08-23T00:01:37.720Z,16.95
2023-08-23T00:02:39.303Z,16.93
2023-08-23T00:03:39.306Z,16.90
2023-08-23T00:04:40.316Z,16.90
2023-08-23T00:05:40.737Z,16.89
2023-08-23T00:06:42.262Z,16.86
2023-08-23T00:07:42.149Z,16.86
2023-08-23T00:08:43.050Z,16.86
2023-08-23T00:09:44.292Z,16.81
2023-08-23T00:10:44.731Z,16.83
2023-08-23T00:11:45.721Z,16.81
2023-08-23T00:12:46.419Z,16.80
2023-08-23T00:13:47.334Z,16.80
2023-08-23T00:14:49.259Z,16.78
2023-08-23T00:15:49.787Z,16.77
2023-08-23T00:16:49.689Z,16.78
2023-08-23T00:17:50.747Z,16.80
2023-08-23T00:18:51.365Z,16.78
2023-08-23T00:19:52.376Z,16.78
2023-08-23T00:20:53.273Z,16.81
2023-08-23T00:21:54.154Z,16.83
2023-08-23T00:22:55.076Z,16.83
2023-08-23T00:23:56.027Z,16.85
2023-08-23T00:24:57.001Z,16.86
2023-08-23T00:25:57.888Z,16.86
2023-08-23T00:26:59.743Z,16.88
2023-08-23T00:28:12.813Z,16.88
2023-08-23T00:29:01.060Z,16.89
2023-08-23T00:30:01.743Z,16.88
2023-08-23T00:31:01.706Z,16.86
2023-08-23T00:32:02.611Z,16.86
2023-08-23T00:33:04.314Z,16.85
2023-08-23T00:34:04.056Z,16.81
2023-08-23T00:35:04.988Z,16.78
2023-08-23T00:36:05.888Z,16.75
2023-08-23T00:37:06.779Z,16.73
2023-08-23T00:38:07.737Z,16.71
2023-08-23T00:39:08.629Z,16.70
2023-08-23T00:40:09.555Z,16.68
2023-08-23T00:41:10.445Z,16.67
2023-08-23T00:42:11.401Z,16.68
2023-08-23T00:43:12.348Z,16.71
2023-08-23T00:44:13.115Z,16.73
2023-08-23T00:45:14.758Z,16.73
2023-08-23T00:46:14.701Z,16.74
2023-08-23T00:47:15.590Z,16.74
2023-08-23T00:48:16.695Z,16.73
2023-08-23T00:49:18.259Z,16.70
2023-08-23T00:50:18.165Z,16.68
2023-08-23T00:51:20.771Z,16.67
2023-08-23T00:52:19.698Z,16.68
2023-08-23T00:53:20.653Z,16.63
2023-08-23T00:54:21.552Z,16.63
2023-08-23T00:55:22.461Z,16.63
2023-08-23T00:56:23.371Z,16.62
2023-08-23T00:57:24.290Z,16.62
2023-08-23T00:58:25.319Z,16.60
2023-08-23T00:59:26.018Z,16.60
2023-08-23T01:00:26.951Z,16.62
2023-08-23T01:01:27.944Z,16.62
2023-08-23T01:02:28.883Z,16.62
2023-08-23T01:03:29.757Z,16.62
2023-08-23T01:04:30.697Z,16.59
2023-08-23T01:05:31.677Z,16.58
2023-08-23T01:06:32.450Z,16.56
2023-08-23T01:07:33.345Z,16.58
2023-08-23T01:08:34.261Z,16.58
2023-08-23T01:09:35.192Z,16.58
2023-08-23T01:10:36.120Z,16.56
2023-08-23T01:11:37.093Z,16.58
2023-08-23T01:12:38.039Z,16.58
2023-08-23T01:13:38.460Z,16.56
2023-08-23T01:14:39.403Z,16.56
2023-08-23T01:15:40.357Z,16.53
2023-08-23T01:16:41.365Z,16.52
2023-08-23T01:17:41.791Z,16.50
2023-08-23T01:18:42.756Z,16.49
2023-08-23T01:19:43.662Z,16.44
2023-08-23T01:20:45.482Z,16.42
2023-08-23T01:21:45.376Z,16.41
2023-08-23T01:22:46.276Z,16.37
2023-08-23T01:23:47.191Z,16.37
2023-08-23T01:24:49.792Z,16.33
2023-08-23T01:25:48.737Z,16.31
2023-08-23T01:26:49.673Z,16.27
2023-08-23T01:27:57.057Z,16.23
2023-08-23T01:28:52.363Z,16.20
2023-08-23T01:29:52.314Z,16.20
2023-08-23T01:30:53.246Z,16.18
2023-08-23T01:31:55.891Z,16.18
2023-08-23T01:32:55.800Z,16.18
2023-08-23T01:33:55.696Z,16.16
2023-08-23T01:34:56.648Z,16.15
2023-08-23T01:35:57.566Z,16.14
2023-08-23T01:36:58.464Z,16.15
2023-08-23T01:37:59.402Z,16.16
2023-08-23T01:39:00.315Z,16.16
2023-08-23T01:40:01.898Z,16.22
2023-08-23T01:41:03.777Z,16.18
2023-08-23T01:42:03.280Z,16.18
2023-08-23T01:43:03.198Z,16.18
2023-08-23T01:44:04.138Z,16.15
2023-08-23T01:45:05.078Z,16.14
2023-08-23T01:46:06.048Z,16.11
2023-08-23T01:47:06.962Z,16.11
2023-08-23T01:48:07.875Z,16.07
2023-08-23T01:49:09.769Z,16.06
2023-08-23T01:50:09.673Z,16.04
2023-08-23T01:51:10.644Z,16.06
2023-08-23T01:52:11.547Z,16.01
2023-08-23T01:53:12.446Z,15.97
2023-08-23T01:54:13.388Z,15.97
2023-08-23T01:55:15.277Z,15.89
2023-08-23T01:56:15.186Z,15.88
2023-08-23T01:57:16.769Z,15.88
2023-08-23T01:58:18.115Z,15.92
2023-08-23T01:59:18.797Z,15.94
2023-08-23T02:00:18.692Z,15.93
2023-08-23T02:01:19.684Z,15.93
2023-08-23T02:02:20.611Z,15.93
2023-08-23T02:03:21.941Z,15.93
2023-08-23T02:04:21.896Z,15.94
2023-08-23T02:05:22.798Z,15.92
2023-08-23T02:06:24.337Z,15.93
2023-08-23T02:07:24.210Z,15.92
2023-08-23T02:08:25.775Z,15.89
2023-08-23T02:09:25.699Z,15.92
2023-08-23T02:10:26.612Z,15.92
2023-08-23T02:11:27.521Z,15.89
2023-08-23T02:12:28.461Z,15.88
2023-08-23T02:13:29.404Z,15.86
2023-08-23T02:14:31.343Z,15.88
2023-08-23T02:15:31.276Z,15.85
2023-08-23T02:16:32.210Z,15.84
2023-08-23T02:17:33.208Z,15.84
2023-08-23T02:18:34.078Z,15.84
2023-08-23T02:19:34.984Z,15.84
2023-08-23T02:20:35.910Z,15.84
2023-08-23T02:21:36.839Z,15.82
2023-08-23T02:22:37.783Z,15.84
2023-08-23T02:23:38.701Z,15.81
2023-08-23T02:24:39.619Z,15.82
2023-08-23T02:25:40.518Z,15.85
2023-08-23T02:26:42.098Z,15.86
2023-08-23T02:27:42.057Z,15.89
2023-08-23T02:28:42.959Z,15.89
2023-08-23T02:29:44.821Z,15.93
2023-08-23T02:30:44.753Z,15.94
2023-08-23T02:31:45.716Z,15.94
2023-08-23T02:32:46.672Z,15.97
2023-08-23T02:33:47.549Z,15.97
2023-08-23T02:34:48.462Z,16.00
2023-08-23T02:35:50.276Z,16.01
2023-08-23T02:36:50.233Z,16.04
2023-08-23T02:37:51.131Z,16.04
2023-08-23T02:38:51.905Z,16.04
2023-08-23T02:39:52.901Z,16.03
2023-08-23T02:40:53.798Z,15.99
2023-08-23T02:41:54.288Z,15.97
2023-08-23T02:42:55.194Z,15.99
2023-08-23T02:43:56.110Z,16.00
2023-08-23T02:44:57.143Z,15.99
2023-08-23T02:45:57.662Z,15.99
2023-08-23T02:46:58.085Z,15.94
2023-08-23T02:47:59.020Z,15.93
2023-08-23T02:48:59.947Z,15.88
2023-08-23T02:50:00.846Z,15.92
2023-08-23T02:51:01.740Z,15.94
2023-08-23T02:52:02.659Z,15.97
2023-08-23T02:53:04.320Z,16.00
2023-08-23T02:54:04.230Z,16.00
2023-08-23T02:55:05.184Z,16.01
2023-08-23T02:56:06.800Z,16.03
2023-08-23T02:57:06.737Z,16.01
2023-08-23T02:58:07.637Z,16.03
2023-08-23T02:59:08.644Z,16.04
2023-08-23T03:00:09.119Z,16.04
2023-08-23T03:01:10.946Z,16.04
2023-08-23T03:02:10.921Z,16.06
2023-08-23T03:03:12.839Z,16.06
2023-08-23T03:04:13.356Z,16.06
2023-08-23T03:05:13.813Z,16.04
2023-08-23T03:06:13.743Z,16.03
2023-08-23T03:07:15.411Z,16.01
2023-08-23T03:08:15.295Z,16.01
2023-08-23T03:09:16.519Z,16.01
2023-08-23T03:10:17.266Z,16.00
2023-08-23T03:11:17.672Z,16.01
2023-08-23T03:12:19.304Z,16.01
2023-08-23T03:13:19.308Z,16.03
2023-08-23T03:14:20.248Z,16.04
2023-08-23T03:15:21.052Z,16.04
2023-08-23T03:16:21.965Z,16.03
2023-08-23T03:17:23.182Z,16.01
2023-08-23T03:18:23.582Z,16.00
2023-08-23T03:19:24.528Z,16.00
2023-08-23T03:20:26.818Z,16.00
2023-08-23T03:21:26.227Z,16.00
2023-08-23T03:22:28.824Z,15.99
2023-08-23T03:23:28.312Z,16.00
2023-08-23T03:24:28.603Z,16.00
2023-08-23T03:25:31.349Z,15.96
2023-08-23T03:26:30.797Z,15.99
2023-08-23T03:27:31.279Z,15.93
2023-08-23T03:28:33.327Z,15.93
2023-08-23T03:29:32.745Z,15.89
2023-08-23T03:30:33.651Z,15.88
2023-08-23T03:31:34.621Z,15.86
2023-08-23T03:32:35.602Z,15.89
2023-08-23T03:33:36.538Z,15.89
2023-08-23T03:34:37.537Z,15.89
2023-08-23T03:35:40.841Z,15.86
2023-08-23T03:36:39.289Z,15.85
2023-08-23T03:37:40.312Z,15.82
2023-08-23T03:38:40.769Z,15.79
2023-08-23T03:39:41.648Z,15.79
2023-08-23T03:40:42.574Z,15.76
2023-08-23T03:45:17.696Z,15.76
2023-08-23T03:46:18.751Z,15.78
2023-08-23T03:47:19.214Z,15.76
2023-08-23T03:48:20.197Z,15.78
2023-08-23T03:49:20.682Z,15.76
2023-08-23T03:50:23.149Z,15.76
2023-08-23T03:51:25.117Z,15.74
2023-08-23T03:52:23.560Z,15.70
2023-08-23T03:53:24.460Z,15.67
2023-08-23T03:54:25.353Z,15.67
2023-08-23T03:55:28.130Z,15.66
2023-08-23T03:56:27.070Z,15.63
2023-08-23T03:57:27.982Z,15.63
2023-08-23T03:58:28.938Z,15.59
2023-08-23T03:59:31.698Z,15.56
2023-08-23T04:00:31.145Z,15.54
2023-08-23T04:01:31.591Z,15.51
2023-08-23T04:02:32.504Z,15.48
2023-08-23T04:03:33.489Z,15.48
2023-08-23T04:04:34.796Z,15.48
2023-08-23T04:05:34.852Z,15.46
2023-08-23T04:06:35.744Z,15.48
2023-08-23T04:07:36.699Z,15.48
2023-08-23T04:08:37.635Z,15.51
2023-08-23T04:09:41.825Z,15.52
2023-08-23T04:10:40.149Z,15.54
2023-08-23T04:11:40.129Z,15.54
2023-08-23T04:12:41.042Z,15.57
2023-08-23T04:13:43.663Z,15.59
2023-08-23T04:14:42.619Z,15.57
2023-08-23T04:15:43.551Z,15.60
2023-08-23T04:16:46.211Z,15.61
2023-08-23T04:17:45.111Z,15.63
2023-08-23T04:18:46.042Z,15.64
2023-08-23T04:20:01.656Z,15.61
2023-08-23T04:20:49.184Z,15.63
2023-08-23T04:21:48.075Z,15.61
2023-08-23T04:22:48.970Z,15.64
2023-08-23T04:23:49.904Z,15.61
2023-08-23T04:24:50.863Z,15.64
2023-08-23T04:25:51.778Z,15.66
2023-08-23T04:26:52.668Z,15.67
2023-08-23T04:27:53.588Z,15.67
2023-08-23T04:28:56.128Z,15.67
2023-08-23T04:29:55.050Z,15.64
2023-08-23T04:30:55.982Z,15.66
2023-08-23T04:31:56.939Z,15.64
2023-08-23T04:32:57.905Z,15.64
2023-08-23T04:33:58.412Z,15.63
2023-08-23T04:34:59.488Z,15.61
2023-08-23T04:35:59.899Z,15.60
2023-08-23T04:37:00.852Z,15.56
2023-08-23T04:38:01.828Z,15.54
2023-08-23T04:39:03.652Z,15.51
2023-08-23T04:40:03.546Z,15.49
2023-08-23T04:41:05.178Z,15.51
2023-08-23T04:42:05.118Z,15.48
2023-08-23T04:43:10.684Z,15.51
2023-08-23T04:44:06.573Z,15.51
2023-08-23T04:45:07.484Z,15.49
2023-08-23T04:46:10.204Z,15.51
2023-08-23T04:47:09.154Z,15.48
2023-08-23T04:48:10.367Z,15.48
2023-08-23T04:49:12.641Z,15.46
2023-08-23T04:50:11.532Z,15.49
2023-08-23T04:51:13.151Z,15.49
2023-08-23T04:52:13.077Z,15.52
2023-08-23T04:53:14.657Z,15.56
2023-08-23T04:54:15.129Z,15.57
2023-08-23T04:55:17.199Z,15.59
2023-08-23T04:56:16.678Z,15.61
2023-08-23T04:57:16.711Z,15.61
2023-08-23T04:58:19.672Z,15.63
2023-08-23T04:59:19.679Z,15.64
2023-08-23T05:00:18.567Z,15.66
2023-08-23T05:01:21.207Z,15.67
2023-08-23T05:02:22.688Z,15.67
2023-08-23T05:03:20.584Z,15.70
2023-08-23T05:04:21.546Z,15.72
2023-08-23T05:05:23.192Z,15.74
2023-08-23T05:06:23.678Z,15.74
2023-08-23T05:07:23.593Z,15.75
2023-08-23T05:08:24.494Z,15.75
2023-08-23T05:09:25.451Z,15.75
2023-08-23T05:10:27.168Z,15.75
2023-08-23T05:11:29.710Z,15.76
2023-08-23T05:12:29.689Z,15.75
2023-08-23T05:13:29.664Z,15.75
2023-08-23T05:14:30.171Z,15.75
2023-08-23T05:15:30.040Z,15.74
2023-08-23T05:16:31.662Z,15.75
2023-08-23T05:17:33.187Z,15.76
2023-08-23T05:18:34.183Z,15.75
2023-08-23T05:19:35.600Z,15.76
2023-08-23T05:20:35.315Z,15.78
2023-08-23T05:21:35.473Z,15.76
2023-08-23T05:22:35.423Z,15.79
2023-08-23T05:23:36.344Z,15.79
2023-08-23T05:24:38.175Z,15.81
2023-08-23T05:25:38.657Z,15.81
2023-08-23T05:26:38.565Z,15.82
2023-08-23T05:27:39.686Z,15.84
2023-08-23T05:28:40.164Z,15.84
2023-08-23T05:29:41.083Z,15.86
2023-08-23T05:30:42.650Z,15.88
2023-08-23T05:31:42.610Z,15.89
2023-08-23T05:32:44.177Z,15.92
2023-08-23T05:33:44.655Z,15.93
2023-08-23T05:34:44.578Z,15.96
2023-08-23T05:35:45.414Z,15.94
2023-08-23T05:36:46.362Z,15.97
2023-08-23T05:37:48.452Z,15.97
2023-08-23T05:38:48.034Z,16.01
2023-08-23T05:39:48.979Z,16.06
2023-08-23T05:40:49.895Z,16.07
2023-08-23T05:41:50.860Z,16.11
2023-08-23T05:42:51.836Z,16.12
2023-08-23T05:43:53.671Z,16.14
2023-08-23T05:44:55.164Z,16.18
2023-08-23T05:45:55.758Z,16.18
2023-08-23T05:46:56.760Z,16.22
2023-08-23T05:47:55.752Z,16.25
2023-08-23T05:48:58.175Z,16.26
2023-08-23T05:49:57.217Z,16.27
2023-08-23T05:50:58.651Z,16.27
2023-08-23T05:51:58.564Z,16.30
2023-08-23T05:52:59.468Z,16.31
2023-08-23T05:54:01.157Z,16.33
2023-08-23T05:55:01.126Z,16.34
2023-08-23T05:56:02.065Z,16.34
2023-08-23T05:57:02.988Z,16.35
2023-08-23T05:58:03.928Z,16.38
2023-08-23T05:59:04.867Z,16.40
2023-08-23T06:00:06.668Z,16.42
2023-08-23T06:01:06.625Z,16.42
2023-08-23T06:02:07.604Z,16.42
2023-08-23T06:03:08.565Z,16.44
2023-08-23T06:04:10.167Z,16.44
2023-08-23T06:05:10.125Z,16.45
2023-08-23T06:06:11.050Z,16.49
2023-08-23T06:07:11.965Z,16.50
2023-08-23T06:08:14.693Z,16.50
2023-08-23T06:09:14.154Z,16.53
2023-08-23T06:10:14.623Z,16.55
2023-08-23T06:11:15.536Z,16.56
2023-08-23T06:12:16.456Z,16.59
2023-08-23T06:13:18.182Z,16.59
2023-08-23T06:14:19.677Z,16.60
2023-08-23T06:15:19.160Z,16.59
2023-08-23T06:16:19.612Z,16.58
2023-08-23T06:17:20.497Z,16.62
2023-08-23T06:18:21.508Z,16.67
2023-08-23T06:19:22.466Z,16.67
2023-08-23T06:20:23.406Z,16.68
2023-08-23T06:21:26.195Z,16.68
2023-08-23T06:22:25.098Z,16.71
2023-08-23T06:23:26.049Z,16.74
2023-08-23T06:24:26.969Z,16.81
2023-08-23T06:25:28.681Z,16.83
2023-08-23T06:26:30.193Z,16.85
2023-08-23T06:27:29.122Z,16.85
2023-08-23T06:28:30.122Z,16.88
2023-08-23T06:29:31.000Z,16.92
2023-08-23T06:30:32.824Z,16.99
2023-08-23T06:31:33.698Z,16.99
2023-08-23T06:32:33.625Z,17.00
2023-08-23T06:33:34.072Z,17.03
2023-08-23T06:34:35.001Z,17.07
2023-08-23T06:35:35.928Z,17.11
2023-08-23T06:36:36.841Z,17.17
2023-08-23T06:37:39.765Z,17.22
2023-08-23T06:38:38.740Z,17.22
2023-08-23T06:39:39.683Z,17.22
2023-08-23T06:40:40.103Z,17.20
2023-08-23T06:41:41.101Z,17.20
2023-08-23T06:42:42.681Z,17.20
2023-08-23T06:43:42.596Z,17.23
2023-08-23T06:44:43.491Z,17.29
2023-08-23T06:45:44.436Z,17.29
2023-08-23T06:46:45.016Z,17.32
2023-08-23T06:47:45.499Z,17.35
2023-08-23T06:48:46.111Z,17.41
2023-08-23T06:49:47.056Z,17.44
2023-08-23T06:50:48.212Z,17.48
2023-08-23T06:51:48.930Z,17.48
2023-08-23T06:52:50.403Z,17.48
2023-08-23T06:53:50.688Z,17.51
2023-08-23T06:54:50.633Z,17.53
2023-08-23T06:55:51.612Z,17.54
2023-08-23T06:56:54.224Z,17.54
2023-08-23T06:57:53.433Z,17.55
2023-08-23T06:58:54.666Z,17.62
2023-08-23T06:59:55.205Z,17.62
2023-08-23T07:00:55.730Z,17.67
2023-08-23T07:01:55.615Z,17.70
2023-08-23T07:02:57.238Z,17.70
2023-08-23T07:03:57.230Z,17.71
2023-08-23T07:04:57.755Z,17.74
2023-08-23T07:05:59.210Z,17.76
2023-08-23T07:07:00.180Z,17.81
2023-08-23T07:08:01.188Z,17.85
2023-08-23T07:09:02.718Z,17.88
2023-08-23T07:10:10.875Z,17.94
2023-08-23T07:11:05.224Z,17.94
2023-08-23T07:12:03.097Z,17.95
2023-08-23T07:13:04.006Z,17.97
2023-08-23T07:14:04.902Z,18.00
2023-08-23T07:15:06.679Z,18.02
2023-08-23T07:16:07.224Z,18.03
2023-08-23T07:17:07.686Z,18.06
2023-08-23T07:18:08.161Z,18.07
2023-08-23T07:19:09.705Z,18.09
2023-08-23T07:20:11.687Z,18.15
2023-08-23T07:21:10.589Z,18.19
2023-08-23T07:22:11.506Z,18.21
2023-08-23T07:23:12.422Z,18.25
2023-08-23T07:24:13.362Z,18.28
2023-08-23T07:25:14.356Z,18.31
2023-08-23T07:26:16.198Z,18.34
2023-08-23T07:27:15.990Z,18.39
2023-08-23T07:28:16.993Z,18.42
2023-08-23T07:29:19.180Z,18.43
2023-08-23T07:30:18.093Z,18.44
2023-08-23T07:31:19.028Z,18.47
2023-08-23T07:32:19.946Z,18.50
2023-08-23T07:33:20.910Z,18.54
2023-08-23T07:34:21.806Z,18.55
2023-08-23T07:35:23.703Z,18.57
2023-08-23T07:36:23.622Z,18.61
2023-08-23T07:37:25.200Z,18.64
2023-08-23T07:38:25.218Z,18.68
2023-08-23T07:39:26.276Z,18.70
2023-08-23T07:40:26.670Z,18.70
2023-08-23T07:41:27.601Z,18.72
2023-08-23T07:42:28.578Z,18.73
2023-08-23T07:43:29.010Z,18.72
2023-08-23T07:44:29.819Z,18.73
2023-08-23T07:45:30.706Z,18.74
2023-08-23T07:46:32.198Z,18.79
2023-08-23T07:47:32.183Z,18.84
2023-08-23T07:48:33.033Z,18.90
2023-08-23T07:49:33.959Z,18.92
2023-08-23T07:50:35.748Z,18.99
2023-08-23T07:51:35.702Z,19.05
2023-08-23T07:52:36.682Z,19.13
2023-08-23T07:53:37.142Z,19.20
2023-08-23T07:54:38.689Z,19.25
2023-08-23T07:55:40.203Z,19.29
2023-08-23T07:56:40.721Z,19.28
2023-08-23T07:57:39.659Z,19.29
2023-08-23T07:58:40.566Z,19.33
2023-08-23T07:59:42.233Z,19.36
2023-08-23T08:00:43.214Z,19.39
2023-08-23T08:01:44.266Z,19.40
2023-08-23T08:02:43.215Z,19.42
2023-08-23T08:03:44.136Z,19.39
2023-08-23T08:04:45.081Z,19.38
2023-08-23T08:05:46.060Z,19.39
2023-08-23T08:06:46.953Z,19.43
2023-08-23T08:08:07.534Z,19.48
2023-08-23T08:08:49.674Z,19.53
2023-08-23T08:09:49.569Z,19.55
2023-08-23T08:10:50.555Z,19.57
2023-08-23T08:11:51.477Z,19.60
2023-08-23T08:12:53.251Z,19.63
2023-08-23T08:13:53.174Z,19.66
2023-08-23T08:14:54.696Z,19.70
2023-08-23T08:15:54.684Z,19.73
2023-08-23T08:16:55.565Z,19.76
2023-08-23T08:17:56.512Z,19.79
2023-08-23T08:18:57.419Z,19.80
2023-08-23T08:19:59.983Z,19.83
2023-08-23T08:20:58.990Z,19.86
2023-08-23T08:22:00.723Z,19.86
2023-08-23T08:23:01.237Z,19.84
2023-08-23T08:24:01.172Z,19.88
2023-08-23T08:25:02.041Z,19.91
2023-08-23T08:26:03.727Z,19.97
2023-08-23T08:27:03.652Z,20.02
2023-08-23T08:28:07.208Z,20.05
2023-08-23T08:29:06.832Z,20.08
2023-08-23T08:30:06.766Z,20.15
2023-08-23T08:31:06.502Z,20.21
2023-08-23T08:32:07.413Z,20.20
2023-08-23T08:33:08.363Z,20.13
2023-08-23T08:34:09.308Z,20.13
2023-08-23T08:35:10.420Z,20.16
2023-08-23T08:36:12.167Z,20.18
2023-08-23T08:37:11.730Z,20.21
2023-08-23T08:38:12.693Z,20.15
2023-08-23T08:39:14.239Z,20.10
2023-08-23T08:40:14.708Z,20.15
2023-08-23T08:41:15.144Z,20.20
2023-08-23T08:42:16.127Z,20.24
2023-08-23T08:43:17.089Z,20.28
2023-08-23T08:44:18.206Z,20.38
2023-08-23T08:45:18.124Z,20.49
2023-08-23T08:46:19.151Z,20.56
2023-08-23T08:47:20.103Z,20.64
2023-08-23T08:48:21.201Z,20.72
2023-08-23T08:49:21.620Z,20.81
2023-08-23T08:50:23.284Z,20.89
2023-08-23T08:51:23.217Z,20.98
2023-08-23T08:52:25.798Z,21.01
2023-08-23T08:53:24.705Z,21.05
2023-08-23T08:54:25.598Z,21.08
2023-08-23T08:55:26.523Z,21.09
2023-08-23T08:56:27.535Z,21.13
2023-08-23T08:57:28.467Z,21.14
2023-08-23T08:58:29.347Z,21.17
2023-08-23T08:59:30.278Z,21.24
2023-08-23T09:00:31.525Z,21.29
2023-08-23T09:01:31.810Z,21.34
2023-08-23T09:02:33.247Z,21.41
2023-08-23T09:03:33.222Z,21.46
2023-08-23T09:04:34.296Z,21.50
2023-08-23T09:05:34.732Z,21.57
2023-08-23T09:06:35.067Z,21.60
2023-08-23T09:07:37.745Z,21.63
2023-08-23T09:08:36.645Z,21.60
2023-08-23T09:09:37.568Z,21.57
2023-08-23T09:10:38.503Z,21.61
2023-08-23T09:11:41.249Z,21.74
2023-08-23T09:12:40.190Z,21.79
2023-08-23T09:13:41.133Z,21.88
2023-08-23T09:14:42.093Z,21.98
2023-08-23T09:15:43.069Z,21.98
2023-08-23T09:16:44.244Z,22.02
2023-08-23T09:17:44.215Z,22.04
2023-08-23T09:18:45.162Z,22.07
2023-08-23T09:19:46.135Z,22.02
2023-08-23T09:20:47.071Z,21.99
2023-08-23T09:21:48.016Z,21.98
2023-08-23T09:22:48.924Z,21.98
2023-08-23T09:23:49.841Z,21.90
2023-08-23T09:24:50.840Z,21.81
2023-08-23T09:25:51.790Z,21.75
2023-08-23T09:26:52.697Z,21.74
2023-08-23T09:27:53.901Z,21.78
2023-08-23T09:28:54.603Z,21.85
2023-08-23T09:29:56.230Z,21.99
2023-08-23T09:30:56.170Z,22.09
2023-08-23T09:31:57.077Z,22.20
2023-08-23T09:32:58.804Z,22.25
2023-08-23T09:33:59.746Z,22.27
2023-08-23T09:35:00.246Z,22.34
2023-08-23T09:36:00.268Z,22.41
2023-08-23T09:37:00.663Z,22.46
2023-08-23T09:38:01.571Z,22.50
2023-08-23T09:39:02.560Z,22.53
2023-08-23T09:40:05.276Z,22.59
2023-08-23T09:41:04.202Z,22.68
2023-08-23T09:42:04.989Z,22.75
2023-08-23T09:43:05.938Z,22.84
2023-08-23T09:44:06.879Z,22.93
2023-08-23T09:45:07.766Z,23.05
2023-08-23T09:46:08.779Z,23.05
2023-08-23T09:47:10.797Z,23.01
2023-08-23T09:48:09.892Z,22.97
2023-08-23T09:49:10.304Z,22.80
2023-08-23T09:50:11.735Z,22.68
2023-08-23T09:51:12.146Z,22.59
2023-08-23T09:52:13.104Z,22.64
2023-08-23T09:53:14.049Z,22.77
2023-08-23T09:54:14.935Z,22.90
2023-08-23T09:55:16.065Z,23.05
2023-08-23T09:56:17.261Z,23.17
2023-08-23T09:57:17.206Z,23.24
2023-08-23T09:58:18.753Z,23.34
2023-08-23T09:59:18.882Z,23.43
2023-08-23T10:00:19.796Z,23.49
2023-08-23T10:01:23.406Z,23.57
2023-08-23T10:02:22.662Z,23.64
2023-08-23T10:03:24.821Z,23.68
2023-08-23T10:04:22.690Z,23.76
2023-08-23T10:05:27.147Z,23.80
2023-08-23T10:06:24.414Z,23.86
2023-08-23T10:07:25.368Z,23.90
2023-08-23T10:08:26.286Z,23.92
2023-08-23T10:09:27.190Z,23.92
2023-08-23T10:10:28.137Z,23.94
2023-08-23T10:11:30.600Z,23.92
2023-08-23T10:12:30.819Z,23.95
2023-08-23T10:13:30.777Z,23.87
2023-08-23T10:14:32.238Z,23.83
2023-08-23T10:15:32.783Z,23.80
2023-08-23T10:16:33.826Z,23.83
2023-08-23T10:17:33.710Z,23.89
2023-08-23T10:18:34.635Z,23.95
2023-08-23T10:19:35.538Z,24.05
2023-08-23T10:20:36.772Z,24.13
2023-08-23T10:21:37.183Z,24.24
2023-08-23T10:22:38.768Z,24.23
2023-08-23T10:23:38.696Z,24.27
2023-08-23T10:24:39.576Z,24.31
2023-08-23T10:25:40.545Z,24.35
2023-08-23T10:26:41.456Z,24.38
2023-08-23T10:27:44.273Z,24.44
2023-08-23T10:28:43.195Z,24.53
2023-08-23T10:29:45.761Z,24.61
2023-08-23T10:30:44.731Z,24.73
2023-08-23T10:31:45.637Z,24.83
2023-08-23T10:32:46.585Z,24.94
2023-08-23T10:33:47.548Z,24.95
2023-08-23T10:34:48.500Z,25.00
2023-08-23T10:35:49.420Z,25.06
2023-08-23T10:36:50.316Z,25.10
2023-08-23T10:37:51.222Z,25.16
2023-08-23T10:38:52.233Z,25.24
2023-08-23T10:39:54.801Z,25.31
2023-08-23T10:40:53.685Z,25.35
2023-08-23T10:41:55.245Z,25.43
2023-08-23T10:42:55.176Z,25.46
2023-08-23T10:43:56.135Z,25.52
2023-08-23T10:44:58.798Z,25.52
2023-08-23T10:45:57.931Z,25.53
2023-08-23T10:46:59.271Z,25.53
2023-08-23T10:47:59.108Z,25.43
2023-08-23T10:49:00.029Z,25.43
2023-08-23T10:50:01.781Z,25.34
2023-08-23T10:51:01.698Z,25.34
2023-08-23T10:52:02.646Z,25.35
2023-08-23T10:53:03.653Z,25.38
2023-08-23T10:54:04.049Z,25.44
2023-08-23T10:55:04.946Z,25.50
2023-08-23T10:56:05.931Z,25.44
2023-08-23T10:57:06.794Z,25.38
2023-08-23T10:58:08.278Z,25.42
2023-08-23T10:59:08.713Z,25.47
2023-08-23T11:00:09.622Z,25.47
2023-08-23T11:01:10.502Z,25.50
2023-08-23T11:02:11.491Z,25.52
2023-08-23T11:03:12.412Z,25.35
2023-08-23T11:04:13.340Z,25.39
2023-08-23T11:05:14.258Z,25.44
2023-08-23T11:06:15.148Z,25.56
2023-08-23T11:07:16.077Z,25.68
2023-08-23T11:08:17.033Z,25.82
2023-08-23T11:09:17.927Z,25.93
2023-08-23T11:10:18.853Z,25.99
2023-08-23T11:11:19.789Z,25.93
2023-08-23T11:12:20.704Z,25.91
2023-08-23T11:13:23.294Z,25.99
2023-08-23T11:14:22.214Z,25.99
2023-08-23T11:15:23.102Z,26.09
2023-08-23T11:16:24.131Z,26.21
2023-08-23T11:17:25.300Z,26.24
2023-08-23T11:18:25.186Z,26.21
2023-08-23T11:19:26.160Z,26.24
2023-08-23T11:20:27.084Z,26.29
2023-08-23T11:21:27.992Z,26.35
2023-08-23T11:22:29.779Z,26.39
2023-08-23T11:23:30.268Z,26.46
2023-08-23T11:24:30.685Z,26.57
2023-08-23T11:25:31.670Z,26.64
2023-08-23T11:26:33.288Z,26.74
2023-08-23T11:27:33.169Z,26.84
2023-08-23T11:28:34.084Z,26.83
2023-08-23T11:29:35.044Z,26.80
2023-08-23T11:30:35.978Z,26.77
2023-08-23T11:31:36.909Z,26.81
2023-08-23T11:32:37.839Z,26.81
2023-08-23T11:33:38.762Z,26.86
2023-08-23T11:34:39.733Z,26.87
2023-08-23T11:35:43.280Z,26.92
2023-08-23T11:36:41.178Z,26.99
2023-08-23T11:37:42.819Z,26.99
2023-08-23T11:38:42.760Z,27.04
2023-08-23T11:39:44.305Z,27.02
2023-08-23T11:40:44.244Z,26.92
2023-08-23T11:41:45.148Z,26.92
2023-08-23T11:42:46.060Z,26.95
2023-08-23T11:43:47.021Z,26.83
2023-08-23T11:44:48.808Z,26.73
2023-08-23T11:45:49.294Z,26.59
2023-08-23T11:46:49.717Z,26.52
2023-08-23T11:47:50.843Z,26.47
2023-08-23T11:48:51.398Z,26.36
2023-08-23T11:49:53.281Z,26.24
2023-08-23T11:50:53.215Z,26.35
2023-08-23T11:51:54.110Z,26.46
2023-08-23T11:52:55.028Z,26.58
2023-08-23T11:53:55.942Z,26.72
2023-08-23T11:54:56.848Z,26.86
2023-08-23T11:55:57.743Z,26.99
2023-08-23T11:56:58.652Z,27.10
2023-08-23T11:57:59.624Z,27.26
2023-08-23T11:59:00.564Z,27.39
2023-08-23T12:00:01.506Z,27.53
2023-08-23T12:01:02.451Z,27.66
2023-08-23T12:02:03.345Z,27.69
2023-08-23T12:03:04.458Z,27.69
2023-08-23T12:04:04.936Z,27.67
2023-08-23T12:05:05.820Z,27.48
2023-08-23T12:06:07.305Z,27.47
2023-08-23T12:07:07.745Z,27.23
2023-08-23T12:08:08.676Z,27.14
2023-08-23T12:09:09.575Z,27.11
2023-08-23T12:10:11.293Z,27.20
2023-08-23T12:11:11.178Z,27.23
2023-08-23T12:12:12.136Z,27.23
2023-08-23T12:13:13.033Z,27.29
2023-08-23T12:14:13.962Z,27.38
2023-08-23T12:15:14.868Z,27.47
2023-08-23T12:16:15.767Z,27.32
2023-08-23T12:17:18.477Z,27.24
2023-08-23T12:18:17.442Z,27.35
2023-08-23T12:21:06.930Z,27.29
2023-08-23T12:22:07.836Z,27.35
2023-08-23T12:23:09.938Z,27.29
2023-08-23T12:24:08.898Z,27.29
2023-08-23T12:25:14.408Z,27.17
2023-08-23T12:26:11.081Z,27.16
2023-08-23T12:27:11.892Z,26.98
2023-08-23T12:28:13.431Z,26.65
2023-08-23T12:29:12.320Z,26.46
2023-08-23T12:30:13.105Z,26.50
2023-08-23T12:31:19.063Z,26.55
2023-08-23T12:32:16.923Z,26.54
2023-08-23T12:33:14.830Z,26.58
2023-08-23T12:34:15.756Z,26.58
2023-08-23T12:35:16.711Z,26.64
2023-08-23T12:36:17.954Z,26.59
2023-08-23T12:37:22.907Z,26.67
2023-08-23T12:38:19.308Z,26.76
2023-08-23T12:39:20.208Z,26.84
2023-08-23T12:40:21.901Z,26.96
2023-08-23T12:41:22.471Z,27.09
2023-08-23T12:42:22.954Z,27.17
2023-08-23T12:43:23.452Z,27.26
2023-08-23T12:44:23.965Z,27.32
2023-08-23T12:45:27.962Z,27.31
2023-08-23T12:46:25.836Z,27.16
2023-08-23T12:47:28.476Z,26.86
2023-08-23T12:48:27.387Z,26.65
2023-08-23T12:49:28.298Z,26.58
2023-08-23T12:50:29.213Z,26.61
2023-08-23T12:51:30.909Z,26.49
2023-08-23T12:52:31.422Z,26.47
2023-08-23T12:53:33.903Z,26.58
2023-08-23T12:54:32.940Z,26.59
2023-08-23T12:55:33.415Z,26.59
2023-08-23T12:56:33.826Z,26.59
2023-08-23T12:57:34.722Z,26.59
2023-08-23T12:58:35.693Z,26.59
2023-08-23T12:59:38.427Z,26.62
2023-08-23T13:00:37.362Z,26.68
2023-08-23T13:01:38.319Z,26.73
2023-08-23T13:02:39.253Z,26.73
2023-08-23T13:03:41.524Z,26.73
2023-08-23T13:04:40.948Z,26.65
2023-08-23T13:05:41.557Z,26.49
2023-08-23T13:06:44.427Z,26.36
2023-08-23T13:07:45.435Z,26.36
2023-08-23T13:08:43.975Z,26.28